.
WxDataArchive / Data Records for 2008-09-05
  September 2008 2008-09-06

Data Records for Friday, 05 September 2008

Time	Temp	Chill	HIndex	Humid	Dewpt	 Wind 	HiWind	WindDir	Rain 	Barom 
-----	----	-----	------	-----	-----	------	------	-------	-----	----- 
01:35	70.1	70.1	70.1	84	65.0	1	10	270	0.00	29.627 
01:40	70.3	70.3	70.3	84	65.2	1	5	45	0.00	29.627 
01:45	70.3	70.3	70.3	84	65.2	1	4	270	0.00	29.621 
01:50	70.3	70.3	70.3	84	65.2	1	4	68	0.00	29.621 
01:55	70.3	70.3	70.3	84	65.2	1	5	112	0.00	29.621 
02:00	70.3	70.3	70.3	83	64.9	2	7	112	0.00	29.616 
02:05	70.3	70.3	70.3	83	64.9	2	7	90	0.00	29.616 
02:10	70.4	70.4	70.4	83	65.0	2	6	248	0.00	29.616 
02:15	70.6	70.6	70.6	84	65.5	2	7	22	0.00	29.616 
02:20	70.8	70.8	70.8	84	65.7	3	9	248	0.00	29.616 
02:25	70.9	70.9	70.9	84	65.8	2	8	22	0.00	29.616 
02:30	70.9	70.9	70.9	84	65.8	1	5	68	0.00	29.616 
02:35	70.9	70.9	70.9	84	65.8	1	4	68	0.00	29.616 
02:40	71.1	71.1	71.1	85	66.4	1	5	68	0.00	29.616 
02:45	71.1	71.1	71.1	85	66.4	2	6	68	0.00	29.617 
02:50	71.1	71.1	71.1	85	66.4	1	4	68	0.00	29.617 
02:55	71.1	71.1	71.1	86	66.7	1	5	292	0.00	29.617 
03:00	71.1	71.1	71.1	86	66.7	2	5	68	0.00	29.616 
03:05	70.9	70.9	70.9	87	66.8	2	7	292	0.00	29.616 
03:10	70.8	70.8	70.8	88	67.1	2	6	270	0.00	29.616 
03:15	70.6	70.6	70.6	89	67.2	1	4	45	0.00	29.615 
03:20	70.3	70.3	70.3	90	67.2	1	5	270	0.00	29.615 
03:25	70.3	70.3	70.3	90	67.2	1	4	270	0.00	29.615 
03:30	70.3	70.3	70.3	91	67.5	2	7	68	0.00	29.615 
03:35	70.3	70.3	70.3	91	67.5	1	7	68	0.00	29.615 
03:40	70.3	70.3	70.3	91	67.5	1	3	338	0.00	29.615 
03:45	70.3	70.3	70.3	91	67.5	1	4	68	0.00	29.617 
03:50	70.4	70.4	70.4	91	67.6	1	4	225	0.00	29.617 
03:55	70.4	70.4	70.4	91	67.6	1	4	248	0.00	29.617 
04:00	70.4	70.4	70.4	91	67.6	1	4	248	0.00	29.619 
04:05	70.6	70.6	70.6	91	67.8	1	5	45	0.00	29.619 
04:10	70.8	70.8	70.8	91	68.0	2	8	248	0.00	29.619 
04:15	70.8	70.8	70.8	91	68.0	2	6	248	0.00	29.626 
04:20	70.9	70.9	70.9	91	68.1	2	6	248	0.00	29.626 
04:25	71.1	71.1	71.1	91	68.3	2	7	248	0.00	29.626 
04:30	71.3	71.3	71.3	91	68.5	2	5	270	0.00	29.630 
04:35	71.3	71.3	71.3	90	68.2	2	9	270	0.00	29.630 
04:40	71.3	71.3	71.3	91	68.5	2	12	248	0.00	29.630 
04:45	71.5	71.5	71.5	91	68.7	2	7	270	0.00	29.631 
04:50	71.5	71.5	71.5	91	68.7	2	4	248	0.00	29.631 
04:55	71.1	71.1	71.1	91	68.3	1	4	248	0.02	29.631 
05:00	70.3	70.3	70.3	90	67.2	2	5	248	0.00	29.656 
05:05	69.8	69.8	69.8	91	67.0	2	6	270	0.00	29.656 
05:10	69.6	69.6	69.6	91	66.8	1	2	270	0.00	29.656 
05:15	69.3	69.3	69.3	92	66.9	1	2	270	0.01	29.664 
05:20	68.8	68.8	68.8	92	66.4	2	5	248	0.00	29.664 
05:25	68.4	68.4	68.4	92	66.0	1	4	248	0.00	29.664 
05:30	68.3	68.3	68.3	93	66.2	1	4	248	0.01	29.670 
05:35	68.1	68.1	68.1	93	66.0	1	4	248	0.00	29.670 
05:40	67.9	67.9	67.9	93	65.8	1	3	225	0.00	29.670 
05:45	67.8	67.8	67.8	94	66.0	1	3	225	0.00	29.678 
05:50	67.6	67.6	67.6	94	65.8	1	3	292	0.00	29.678 
05:55	67.4	67.4	67.4	94	65.6	1	3	292	0.00	29.678 
06:00	67.3	67.3	67.3	94	65.5	2	4	270	0.00	29.685 
06:05	67.3	67.3	67.3	94	65.5	2	4	270	0.00	29.685 
06:10	67.1	67.1	67.1	93	65.0	1	3	315	0.00	29.685 
06:15	67.1	67.1	67.1	93	65.0	1	3	292	0.00	29.698 
06:20	66.6	66.6	66.6	93	64.5	2	4	270	0.00	29.698 
06:25	66.4	66.4	66.4	92	64.0	2	7	270	0.00	29.698 
06:30	66.3	66.3	66.3	92	63.9	2	5	270	0.00	29.713 
06:35	66.3	66.3	66.3	91	63.6	1	4	270	0.00	29.713 
06:40	66.1	66.1	66.1	91	63.4	0	2	315	0.00	29.713 
06:45	66.0	66.0	66.0	90	63.0	1	5	270	0.00	29.718 
06:50	65.8	65.8	65.8	90	62.8	1	6	315	0.00	29.718 
06:55	65.8	65.8	65.8	90	62.8	1	4	315	0.00	29.718 
07:00	65.6	65.6	65.6	89	62.3	1	5	315	0.00	29.729 
07:05	65.8	65.8	65.8	89	62.5	2	4	315	0.00	29.729 
07:10	65.8	65.8	65.8	88	62.1	1	4	292	0.00	29.729 
07:15	65.8	65.8	65.8	88	62.1	1	3	292	0.00	29.738 
07:20	65.8	65.8	65.8	88	62.1	1	3	315	0.00	29.738 
07:25	65.8	65.8	65.8	88	62.1	1	5	292	0.00	29.738 
07:30	65.8	65.8	65.8	88	62.1	1	6	292	0.00	29.750 
07:35	66.0	66.0	66.0	87	62.0	2	3	315	0.00	29.750 
07:40	66.1	66.1	66.1	87	62.1	1	3	315	0.00	29.750 
07:45	66.0	66.0	66.0	86	61.7	2	4	315	0.00	29.751 
07:50	65.8	65.8	65.8	87	61.8	2	5	315	0.00	29.751 
07:55	66.1	66.1	66.1	86	61.8	1	4	292	0.00	29.751 
08:00	66.4	66.4	66.4	85	61.7	2	6	292	0.00	29.756 
08:05	66.8	66.8	66.8	84	61.8	2	8	270	0.00	29.756 
08:10	67.3	67.3	67.3	84	62.3	1	3	292	0.00	29.756 
08:15	67.6	67.6	67.6	82	61.9	1	3	292	0.00	29.761 
08:20	67.9	67.9	67.9	80	61.5	1	5	338	0.00	29.761 
08:25	68.3	68.3	68.3	78	61.2	1	4	315	0.00	29.761 
08:30	68.6	68.6	68.6	77	61.1	2	4	315	0.00	29.764 
08:35	68.9	68.9	68.9	77	61.4	1	6	315	0.00	29.764 
08:40	69.1	69.1	69.1	76	61.2	1	2	315	0.00	29.764 
08:45	69.4	69.4	69.4	76	61.5	1	3	22	0.00	29.771 
08:50	69.8	69.8	69.8	75	61.5	1	7	22	0.00	29.771 
08:55	69.9	69.9	69.9	75	61.6	1	3	315	0.00	29.771 
09:00	69.9	69.9	69.9	73	60.8	1	4	270	0.00	29.779 
09:05	70.3	70.3	70.3	74	61.6	1	3	292	0.00	29.779 
09:10	70.9	70.9	70.9	72	61.4	1	2	315	0.00	29.779 
09:15	71.5	71.5	71.5	71	61.6	1	3	292	0.00	29.787 
09:20	72.0	72.0	72.0	71	62.1	1	4	270	0.00	29.787 
09:25	71.5	71.5	71.5	69	60.8	1	4	248	0.00	29.787 
09:30	70.8	70.8	70.8	71	60.9	1	3	292	0.00	29.796 
09:35	70.3	70.3	70.3	72	60.8	1	3	292	0.00	29.796 
09:40	70.3	70.3	70.3	73	61.2	0	2	292	0.00	29.796 
09:45	70.3	70.3	70.3	72	60.8	1	3	292	0.00	29.804 
09:50	70.1	70.1	70.1	73	61.0	1	3	270	0.00	29.804 
09:55	69.9	69.9	69.9	72	60.4	1	3	248	0.00	29.804 
10:00	70.1	70.1	70.1	73	61.0	0	2	292	0.00	29.810 
10:05	70.3	70.3	70.3	71	60.4	0	3	315	0.00	29.810 
10:10	70.4	70.4	70.4	70	60.1	0	2	315	0.00	29.810 
10:15	70.6	70.6	70.6	70	60.3	0	2	315	0.00	29.816 
10:20	70.8	70.8	70.8	70	60.5	0	2	315	0.00	29.816 
10:25	70.9	70.9	70.9	69	60.2	1	3	270	0.00	29.816 
10:30	70.9	70.9	70.9	68	59.8	0	3	270	0.00	29.824 
10:35	71.3	71.3	71.3	68	60.2	0	1	270	0.00	29.824 
10:40	71.3	71.3	71.3	67	59.8	0	1	270	0.00	29.824 
10:45	71.3	71.3	71.3	67	59.8	0	2	270	0.00	29.825 
10:50	71.3	71.3	71.3	68	60.2	0	1	270	0.00	29.825 
10:55	71.5	71.5	71.5	66	59.5	0	1	270	0.00	29.825 
11:00	71.5	71.5	71.5	67	60.0	0	1	270	0.00	29.828 
11:05	71.6	71.6	71.6	67	60.0	0	1	270	0.00	29.828 
11:10	71.8	71.8	71.8	67	60.2	1	3	292	0.00	29.828 
11:15	71.8	71.8	71.8	67	60.2	1	3	270	0.00	29.829 
11:20	71.8	71.8	71.8	67	60.2	0	1	270	0.00	29.829 
11:25	72.0	72.0	72.0	67	60.4	0	1	270	0.00	29.829 
11:30	72.3	72.3	72.3	66	60.3	1	3	292	0.00	29.827 
11:35	72.3	72.3	72.3	65	59.9	1	4	248	0.00	29.827 
11:40	72.5	72.5	72.5	65	60.0	0	1	270	0.00	29.827 
11:45	72.7	72.7	72.7	66	60.7	0	1	270	0.00	29.828 
11:50	72.8	72.8	72.8	65	60.3	0	2	338	0.00	29.828 
11:55	73.2	73.2	73.2	65	60.7	0	2	338	0.00	29.828 
12:00	73.5	73.5	73.5	63	60.1	1	3	270	0.00	29.823 
12:05	74.0	74.0	74.0	64	61.0	0	3	270	0.00	29.823 
12:10	74.2	74.2	74.2	60	59.4	1	3	270	0.00	29.823 
12:15	73.9	73.9	73.9	60	59.1	1	5	270	0.00	29.826 
12:20	73.7	73.7	73.7	61	59.4	1	3	292	0.00	29.826 
12:25	73.9	73.9	73.9	62	60.0	0	1	315	0.00	29.826 
12:30	74.9	74.9	74.9	59	59.6	0	3	315	0.00	29.822 
12:35	75.1	75.1	77.5	57	58.8	1	3	315	0.00	29.822 
12:40	74.6	74.6	74.6	58	58.8	1	2	315	0.00	29.822 
12:45	74.6	74.6	74.6	58	58.8	0	2	315	0.00	29.824 
12:50	74.7	74.7	74.7	59	59.4	0	1	315	0.00	29.824 
12:55	74.6	74.6	74.6	59	59.3	0	2	315	0.00	29.824 
13:00	74.7	74.7	74.7	58	58.9	1	2	0	0.00	29.824 
13:05	74.7	74.7	74.7	59	59.4	0	2	338	0.00	29.824 
13:10	74.7	74.7	74.7	61	60.3	0	2	338	0.00	29.824 
13:15	74.4	74.4	74.4	59	59.1	0	2	338	0.00	29.825 
13:20	74.0	74.0	74.0	60	59.2	1	3	338	0.00	29.825 
13:25	73.9	73.9	73.9	61	59.6	0	2	338	0.00	29.825 
13:30	73.7	73.7	73.7	61	59.4	1	4	292	0.00	29.826 
13:35	73.3	73.3	73.3	61	59.0	1	2	292	0.00	29.826 
13:40	73.2	73.2	73.2	63	59.8	0	2	292	0.00	29.826 
13:45	72.8	72.8	72.8	64	59.9	0	2	315	0.00	29.829 
13:50	72.7	72.7	72.7	65	60.2	0	2	315	0.00	29.829 
13:55	72.5	72.5	72.5	65	60.0	0	2	315	0.00	29.829 
14:00	72.3	72.3	72.3	66	60.3	1	2	315	0.00	29.829 
14:05	72.3	72.3	72.3	66	60.3	0	2	315	0.00	29.829 
14:10	72.5	72.5	72.5	66	60.5	0	2	315	0.00	29.829 
14:15	73.0	73.0	73.0	67	61.4	0	1	315	0.00	29.826 
14:20	73.3	73.3	73.3	65	60.8	0	2	315	0.00	29.826 
14:25	73.7	73.7	73.7	65	61.2	0	1	315	0.00	29.826 
14:30	73.9	73.9	73.9	65	61.4	0	1	315	0.00	29.827 
14:35	73.9	73.9	73.9	64	60.9	1	2	315	0.00	29.827 
14:40	73.9	73.9	73.9	64	60.9	1	2	315	0.00	29.827 
14:45	74.2	74.2	74.2	65	61.7	0	2	315	0.00	29.826 
14:50	74.2	74.2	74.2	63	60.8	0	2	315	0.00	29.826 
14:55	74.2	74.2	74.2	64	61.2	0	2	315	0.00	29.826 
15:00	74.2	74.2	74.2	64	61.2	0	1	315	0.00	29.827 
15:05	73.9	73.9	73.9	64	60.9	0	1	292	0.00	29.827 
15:10	73.5	73.5	73.5	65	61.0	0	3	292	0.00	29.827 
15:15	73.2	73.2	73.2	66	61.1	0	1	292	0.00	29.834 
15:20	72.8	72.8	72.8	66	60.8	0	1	292	0.00	29.834 
15:25	72.7	72.7	72.7	65	60.2	0	2	292	0.00	29.834 
15:30	72.5	72.5	72.5	66	60.5	0	1	292	0.00	29.831 
15:35	72.7	72.7	72.7	65	60.2	0	1	292	0.00	29.831 
15:40	72.8	72.8	72.8	65	60.3	1	2	292	0.00	29.831 
15:45	73.0	73.0	73.0	65	60.5	0	1	292	0.00	29.838 
15:50	73.2	73.2	73.2	65	60.7	0	1	292	0.00	29.838 
15:55	73.3	73.3	73.3	63	59.9	0	2	292	0.00	29.838 
16:00	73.5	73.5	73.5	64	60.6	0	1	292	0.00	29.837 
16:05	73.7	73.7	73.7	62	59.9	0	2	292	0.00	29.837 
16:10	73.7	73.7	73.7	61	59.4	0	2	292	0.00	29.837 
16:15	73.9	73.9	73.9	62	60.0	0	1	292	0.00	29.840 
16:20	73.9	73.9	73.9	59	58.7	0	2	292	0.00	29.840 
16:25	73.9	73.9	73.9	58	58.2	1	2	292	0.00	29.840 
16:30	73.9	73.9	73.9	58	58.2	0	2	292	0.00	29.841 
16:35	73.9	73.9	73.9	59	58.7	0	1	292	0.00	29.841 
16:40	73.9	73.9	73.9	59	58.7	0	1	292	0.00	29.841 
16:45	73.9	73.9	73.9	60	59.1	0	1	292	0.00	29.842 
16:50	73.9	73.9	73.9	59	58.7	1	3	292	0.00	29.842 
16:55	73.9	73.9	73.9	60	59.1	0	3	292	0.00	29.842 
17:00	73.9	73.9	73.9	60	59.1	0	1	292	0.00	29.843 
17:05	73.7	73.7	73.7	61	59.4	0	1	292	0.00	29.843 
17:10	73.7	73.7	73.7	61	59.4	0	1	292	0.00	29.843 
17:15	73.7	73.7	73.7	62	59.9	0	1	292	0.00	29.854 
17:20	73.5	73.5	73.5	62	59.7	0	1	292	0.00	29.854 
17:25	73.5	73.5	73.5	62	59.7	0	1	292	0.00	29.854 
17:30	73.3	73.3	73.3	63	59.9	0	1	292	0.00	29.857 
17:35	73.3	73.3	73.3	63	59.9	0	1	292	0.00	29.857 
17:40	73.2	73.2	73.2	63	59.8	0	1	292	0.00	29.857 
17:45	73.2	73.2	73.2	63	59.8	0	0	---	0.00	29.858 
17:50	73.2	73.2	73.2	63	59.8	0	1	292	0.00	29.858 
17:55	73.2	73.2	73.2	63	59.8	0	1	292	0.00	29.858 
18:00	73.2	73.2	73.2	63	59.8	0	1	292	0.00	29.860 
18:05	73.2	73.2	73.2	63	59.8	0	1	292	0.00	29.860 
18:10	73.2	73.2	73.2	64	60.3	0	1	292	0.00	29.860 
18:15	73.2	73.2	73.2	64	60.3	0	0	---	0.00	29.862 
18:20	73.2	73.2	73.2	63	59.8	0	1	292	0.00	29.862 
18:25	73.0	73.0	73.0	64	60.1	0	1	292	0.00	29.862 
18:30	72.8	72.8	72.8	63	59.5	0	0	---	0.00	29.862 
18:35	72.7	72.7	72.7	63	59.4	0	1	292	0.00	29.862 
18:40	72.5	72.5	72.5	63	59.2	0	1	292	0.00	29.862 
18:45	72.3	72.3	72.3	63	59.0	0	1	292	0.00	29.862 
18:50	72.1	72.1	72.1	63	58.8	0	1	292	0.00	29.862 
18:55	71.8	71.8	71.8	64	59.0	0	0	---	0.00	29.862 
19:00	71.6	71.6	71.6	64	58.8	0	1	292	0.00	29.862 
19:05	71.5	71.5	71.5	65	59.1	0	0	---	0.00	29.862 
19:10	71.3	71.3	71.3	65	58.9	0	1	292	0.00	29.862 
19:15	71.3	71.3	71.3	65	58.9	0	1	292	0.00	29.864 
19:20	71.1	71.1	71.1	65	58.7	0	1	292	0.00	29.864 
19:25	70.9	70.9	70.9	65	58.5	0	2	292	0.00	29.864 
19:30	70.8	70.8	70.8	66	58.9	0	0	---	0.00	29.868 
19:35	70.8	70.8	70.8	66	58.9	0	1	292	0.00	29.868 
19:40	70.6	70.6	70.6	67	59.1	0	0	---	0.00	29.868 
19:45	70.4	70.4	70.4	67	58.9	0	0	---	0.00	29.874 
19:50	70.3	70.3	70.3	67	58.8	0	1	292	0.00	29.874 
19:55	70.1	70.1	70.1	68	59.0	0	0	---	0.00	29.874 
20:00	69.9	69.9	69.9	68	58.8	0	1	292	0.00	29.879 
20:05	69.8	69.8	69.8	68	58.7	0	1	292	0.00	29.879 
20:10	69.8	69.8	69.8	69	59.2	0	0	---	0.00	29.879 
20:15	69.6	69.6	69.6	69	59.0	0	1	292	0.00	29.883 
20:20	69.4	69.4	69.4	69	58.8	0	1	292	0.00	29.883 
20:25	69.4	69.4	69.4	69	58.8	0	1	292	0.00	29.883 
20:30	69.1	69.1	69.1	70	58.9	0	1	292	0.00	29.891 
20:35	68.9	68.9	68.9	71	59.1	0	3	292	0.00	29.891 
20:40	68.6	68.6	68.6	71	58.8	0	1	248	0.00	29.891 
20:45	68.4	68.4	68.4	70	58.2	0	2	270	0.00	29.893 
20:50	68.1	68.1	68.1	70	57.9	1	4	45	0.00	29.893 
20:55	67.9	67.9	67.9	70	57.7	0	3	315	0.00	29.893 
21:00	67.8	67.8	67.8	71	58.0	0	1	315	0.00	29.892 
21:05	67.4	67.4	67.4	71	57.7	0	1	315	0.00	29.892 
21:10	67.3	67.3	67.3	71	57.6	0	1	315	0.00	29.892 
21:15	67.1	67.1	67.1	71	57.4	0	1	315	0.00	29.893 
21:20	67.1	67.1	67.1	72	57.8	0	1	315	0.00	29.893 
21:25	66.9	66.9	66.9	72	57.6	0	1	315	0.00	29.893 
21:30	66.8	66.8	66.8	72	57.5	0	2	315	0.00	29.894 
21:35	66.6	66.6	66.6	72	57.3	0	1	315	0.00	29.894 
21:40	66.6	66.6	66.6	72	57.3	0	1	315	0.00	29.894 
21:45	66.4	66.4	66.4	73	57.5	0	2	315	0.00	29.893 
21:50	66.3	66.3	66.3	73	57.4	0	1	315	0.00	29.893 
21:55	66.3	66.3	66.3	73	57.4	0	1	315	0.00	29.893 
22:00	66.1	66.1	66.1	73	57.2	0	1	315	0.00	29.890 
22:05	66.1	66.1	66.1	73	57.2	0	1	315	0.00	29.890 
22:10	66.0	66.0	66.0	73	57.1	0	1	315	0.00	29.890 
22:15	66.0	66.0	66.0	73	57.1	0	1	315	0.00	29.890 
22:20	66.0	66.0	66.0	73	57.1	0	1	315	0.00	29.890 
22:25	65.8	65.8	65.8	73	56.9	0	1	315	0.00	29.890 
22:30	65.8	65.8	65.8	73	56.9	0	0	---	0.00	29.888 
22:35	65.8	65.8	65.8	74	57.3	0	0	---	0.00	29.888 
22:40	65.6	65.6	65.6	75	57.5	0	0	---	0.00	29.888 
22:45	65.6	65.6	65.6	75	57.5	0	1	315	0.00	29.891 
22:50	65.5	65.5	65.5	75	57.4	0	0	---	0.00	29.891 
22:55	65.5	65.5	65.5	76	57.7	0	1	315	0.00	29.891 
23:00	65.5	65.5	65.5	76	57.7	0	1	315	0.00	29.893 
23:05	65.3	65.3	65.3	76	57.5	0	1	315	0.00	29.893 
23:10	65.3	65.3	65.3	76	57.5	0	1	315	0.00	29.893 
23:15	65.3	65.3	65.3	76	57.5	0	1	315	0.00	29.895 
23:20	65.2	65.2	65.2	76	57.4	0	1	315	0.00	29.895 
23:25	65.2	65.2	65.2	76	57.4	0	1	315	0.00	29.895 
23:30	65.2	65.2	65.2	76	57.4	0	1	315	0.00	29.897 
23:35	65.0	65.0	65.0	76	57.2	0	2	315	0.00	29.897 
23:40	65.0	65.0	65.0	76	57.2	0	1	315	0.00	29.897 
23:45	65.0	65.0	65.0	76	57.2	0	1	315	0.00	29.895 
23:50	64.8	64.8	64.8	76	57.0	0	1	315	0.00	29.895 
23:55	64.8	64.8	64.8	76	57.0	0	1	315	0.00	29.895 

CoCoRaHS
IN-AL-39
A2 Web Hosting
Creative Commons License
GoDaddy
Look for:

loaded 2017-10-19 12:07:27 • last modified 2010-11-18 10:43:29
Privacy PolicyDisclaimer
• wx.awcolley.com is powered by PmWiki v.2002016 •
• all content (unless otherwise noted) © 2017 A W Colley